EGPF/GLA METAR and TAF weather

Enter ICAO airport designator
Station Type Date Time Source
EGPF METAR 2018/10/16 20:50 UTC NOAA

EGPF 162050Z AUTO 19012KT 9999 NCD 12/10 Q1009


Station Type Date Time Source
EGPF Decoded METAR 2018/10/16 20:50 UTC NOAA

Glasgow Airport, United Kingdom (EGPF) 55-52N 004-26W 0M
Oct 16, 2018 - 04:50 PM EDT / 2018.10.16 2050 UTC
Wind: from the S (190 degrees) at 14 MPH (12 KT):0
Visibility: greater than 7 mile(s):0
Temperature: 53 F (12 C)
Dew Point: 50 F (10 C)
Relative Humidity: 87%
Pressure (altimeter): 29.80 in. Hg (1009 hPa)
ob: EGPF 162050Z AUTO 19012KT 9999 NCD 12/10 Q1009
cycle: 21

Station Type Date Time Source
EGPF TAF 2018/10/16 18:16 UTC NOAA

TAF EGPF 161657Z 1618/1718 23008KT 9999 SCT020 PROB30
TEMPO 1618/1624 BKN014 PROB30
TEMPO 1700/1708 6000 SHRA BKN014


Example: see airport list